Time;durP1;ratioP1;P1;durP2;ratioP2;P2;SDS_P1;SDS_P2;PMS_P1;PMS_P2;Temp;Humidity;BMP_temperature;BMP_pressure;BME280_temperature;BME280_humidity;BME280_pressure;Samples;Min_cycle;Max_cycle;Signal;HPM_P1;HPM_P2
2024/01/16 00:01:37;;;;;;;19.17;10.23;;;;;;;;;;4990821;28;20037;-80
2024/01/16 00:04:03;;;;;;;19.10;11.00;;;;;;;;;;4990863;28;20091;-80
2024/01/16 00:06:28;;;;;;;;;;;;;;;;;;4996578;28;20034;-80
2024/01/16 00:08:54;;;;;;;16.92;10.20;;;;;;;;;;5000672;28;19925;-80
2024/01/16 00:11:19;;;;;;;17.23;10.23;;;;;;;;;;4998854;28;20034;-80
2024/01/16 00:13:44;;;;;;;17.20;10.68;;;;;;;;;;4986162;28;20022;-80
2024/01/16 00:16:10;;;;;;;16.25;9.90;;;;;;;;;;4999192;28;20061;-80
2024/01/16 00:18:35;;;;;;;18.88;11.55;;;;;;;;;;5003660;28;20112;-79
2024/01/16 00:21:02;;;;;;;15.57;9.57;;;;;;;;;;5003579;28;20048;-79
2024/01/16 00:23:28;;;;;;;17.52;10.95;;;;;;;;;;5004751;28;20396;-80
2024/01/16 00:25:53;;;;;;;17.50;10.98;;;;;;;;;;5004714;28;20034;-80
2024/01/16 00:28:19;;;;;;;19.27;11.38;;;;;;;;;;4998613;28;20049;-79
2024/01/16 00:30:45;;;;;;;;;;;;;;;;;;4982287;28;20037;-78
2024/01/16 00:33:12;;;;;;;17.15;10.27;;;;;;;;;;4993789;28;19910;-79
2024/01/16 00:35:37;;;;;;;19.60;11.35;;;;;;;;;;4984331;28;20046;-79
2024/01/16 00:38:03;;;;;;;19.63;12.20;;;;;;;;;;4980548;28;20034;-79
2024/01/16 00:40:28;;;;;;;19.88;11.18;;;;;;;;;;4981000;28;20474;-79
2024/01/16 00:42:54;;;;;;;19.77;10.63;;;;;;;;;;4993945;28;20038;-79
2024/01/16 00:45:19;;;;;;;17.73;10.50;;;;;;;;;;4978015;28;20039;-79
2024/01/16 00:47:45;;;;;;;18.83;10.93;;;;;;;;;;4992569;28;20053;-79
2024/01/16 00:50:10;;;;;;;19.88;12.52;;;;;;;;;;4998208;28;20477;-78
2024/01/16 00:52:36;;;;;;;17.42;9.95;;;;;;;;;;4994396;28;20045;-79
2024/01/16 00:55:01;;;;;;;19.40;12.50;;;;;;;;;;4994287;28;20027;-78
2024/01/16 00:57:28;;;;;;;18.20;10.15;;;;;;;;;;4997148;28;20036;-79
2024/01/16 00:59:53;;;;;;;20.48;12.88;;;;;;;;;;4992967;28;20038;-78
2024/01/16 01:02:18;;;;;;;21.02;13.52;;;;;;;;;;4995088;28;20089;-80
2024/01/16 01:04:44;;;;;;;20.05;12.55;;;;;;;;;;4995355;28;20073;-79
2024/01/16 01:07:12;;;;;;;19.80;11.48;;;;;;;;;;4997832;28;20482;-79
2024/01/16 01:09:38;;;;;;;18.77;11.73;;;;;;;;;;4995148;28;20088;-79
2024/01/16 01:12:03;;;;;;;20.50;11.55;;;;;;;;;;4977285;28;20030;-79
2024/01/16 01:14:29;;;;;;;20.30;11.70;;;;;;;;;;4994786;28;20026;-79
2024/01/16 01:16:55;;;;;;;20.48;12.15;;;;;;;;;;4993140;28;20037;-79
2024/01/16 01:19:20;;;;;;;18.42;11.18;;;;;;;;;;5008721;28;20072;-79
2024/01/16 01:21:46;;;;;;;20.50;12.13;;;;;;;;;;4987893;28;20035;-79
2024/01/16 01:24:11;;;;;;;19.30;11.48;;;;;;;;;;4993196;28;20077;-79
2024/01/16 01:26:37;;;;;;;22.35;12.43;;;;;;;;;;4992444;28;20165;-79
2024/01/16 01:29:02;;;;;;;22.67;12.43;;;;;;;;;;4994405;28;20468;-79
2024/01/16 01:31:27;;;;;;;20.73;13.18;;;;;;;;;;4992407;28;20038;-79
2024/01/16 01:33:53;;;;;;;22.17;13.35;;;;;;;;;;4994486;28;20113;-79
2024/01/16 01:36:18;;;;;;;;;;;;;;;;;;4992942;28;20050;-79
2024/01/16 01:38:44;;;;;;;20.80;11.70;;;;;;;;;;4995143;28;19932;-79
2024/01/16 01:41:11;;;;;;;20.48;12.30;;;;;;;;;;4995302;28;20026;-79
2024/01/16 01:43:37;;;;;;;20.55;10.95;;;;;;;;;;4998640;28;20102;-79
2024/01/16 01:46:05;;;;;;;26.13;13.52;;;;;;;;;;4980454;28;20117;-79
2024/01/16 01:48:31;;;;;;;20.10;11.77;;;;;;;;;;4988886;28;20042;-80
2024/01/16 01:50:57;;;;;;;;;;;;;;;;;;4971702;28;20030;-80
2024/01/16 01:53:22;;;;;;;20.42;10.90;;;;;;;;;;4993567;28;20300;-80
2024/01/16 01:55:48;;;;;;;19.60;12.30;;;;;;;;;;4974449;28;20030;-80
2024/01/16 01:58:14;;;;;;;19.77;11.07;;;;;;;;;;4983556;28;20409;-80
2024/01/16 02:00:39;;;;;;;19.88;11.50;;;;;;;;;;5003960;28;20045;-80
2024/01/16 02:03:05;;;;;;;;;;;;;;;;;;5008659;28;20046;-80
2024/01/16 02:05:30;;;;;;;21.45;11.73;;;;;;;;;;5011555;28;19975;-80
2024/01/16 02:07:56;;;;;;;;;;;;;;;;;;5009748;28;20405;-80
2024/01/16 02:10:21;;;;;;;19.23;10.70;;;;;;;;;;5010640;28;19984;-80
2024/01/16 02:12:47;;;;;;;22.45;12.27;;;;;;;;;;4993762;28;20048;-79
2024/01/16 02:15:12;;;;;;;20.85;11.65;;;;;;;;;;4977374;28;20034;-79
2024/01/16 02:17:37;;;;;;;;;;;;;;;;;;4976171;28;20449;-79
2024/01/16 02:20:03;;;;;;;23.15;11.95;;;;;;;;;;4992889;28;19919;-79
2024/01/16 02:22:29;;;;;;;21.63;12.00;;;;;;;;;;4994171;28;20449;-79
2024/01/16 02:24:54;;;;;;;;;;;;;;;;;;4994687;28;20038;-79
2024/01/16 02:27:20;;;;;;;23.20;12.02;;;;;;;;;;4994881;28;19975;-80
2024/01/16 02:29:46;;;;;;;18.35;10.82;;;;;;;;;;4993395;28;20026;-80
2024/01/16 02:32:12;;;;;;;21.65;12.18;;;;;;;;;;4977438;28;20037;-80
2024/01/16 02:34:38;;;;;;;21.27;11.45;;;;;;;;;;4991148;28;20499;-80
2024/01/16 02:37:04;;;;;;;;;;;;;;;;;;4993324;28;20081;-80
2024/01/16 02:39:29;;;;;;;21.13;11.82;;;;;;;;;;4992700;28;20478;-80
2024/01/16 02:41:55;;;;;;;22.27;13.52;;;;;;;;;;4993461;28;20038;-80
2024/01/16 02:44:20;;;;;;;19.63;11.55;;;;;;;;;;4992832;28;20049;-80
2024/01/16 02:46:45;;;;;;;;;;;;;;;;;;4976588;28;20034;-79
2024/01/16 02:49:11;;;;;;;19.75;10.38;;;;;;;;;;4989914;28;19916;-79
2024/01/16 02:51:37;;;;;;;20.90;11.90;;;;;;;;;;4994230;28;20485;-79
2024/01/16 02:54:02;;;;;;;;;;;;;;;;;;5000716;28;20088;-79
2024/01/16 02:56:28;;;;;;;18.15;10.82;;;;;;;;;;4992629;28;19920;-80
2024/01/16 02:58:53;;;;;;;;;;;;;;;;;;4991594;28;20030;-79
2024/01/16 03:01:18;;;;;;;23.05;12.50;;;;;;;;;;4992280;28;19914;-80
2024/01/16 03:03:44;;;;;;;24.50;13.95;;;;;;;;;;5001469;28;20018;-80
2024/01/16 03:06:09;;;;;;;;;;;;;;;;;;4994210;28;20401;-79
2024/01/16 03:08:35;;;;;;;23.23;13.52;;;;;;;;;;4993187;28;19921;-80
2024/01/16 03:11:00;;;;;;;;;;;;;;;;;;4993382;28;20490;-80
2024/01/16 03:13:26;;;;;;;22.65;13.00;;;;;;;;;;4991526;28;19910;-80
2024/01/16 03:15:51;;;;;;;22.00;13.32;;;;;;;;;;4992747;28;20038;-80
2024/01/16 03:18:17;;;;;;;23.55;12.80;;;;;;;;;;4991945;28;20034;-79
2024/01/16 03:20:43;;;;;;;22.80;12.25;;;;;;;;;;4994507;28;20026;-79
2024/01/16 03:23:08;;;;;;;20.30;10.93;;;;;;;;;;4992863;28;20034;-79
2024/01/16 03:25:38;;;;;;;22.10;12.60;;;;;;;;;;4994260;28;20064;-80
2024/01/16 03:28:04;;;;;;;22.15;13.00;;;;;;;;;;4992134;28;20242;-80
2024/01/16 03:30:29;;;;;;;;;;;;;;;;;;4976372;28;20034;-80
2024/01/16 03:32:55;;;;;;;21.38;11.85;;;;;;;;;;5000693;28;19909;-80
2024/01/16 03:35:20;;;;;;;25.65;13.65;;;;;;;;;;4993037;28;20042;-80
2024/01/16 03:37:47;;;;;;;21.85;12.23;;;;;;;;;;4991239;28;20129;-80
2024/01/16 03:40:12;;;;;;;20.90;11.43;;;;;;;;;;4976191;28;20069;-80
2024/01/16 03:42:38;;;;;;;20.92;12.98;;;;;;;;;;4991106;28;20482;-80
2024/01/16 03:45:05;;;;;;;24.98;13.88;;;;;;;;;;4992516;28;20049;-80
2024/01/16 03:47:30;;;;;;;23.95;13.50;;;;;;;;;;4993012;28;20121;-80
2024/01/16 03:49:56;;;;;;;23.60;12.55;;;;;;;;;;4990608;28;20121;-80
2024/01/16 03:52:21;;;;;;;25.02;13.75;;;;;;;;;;4990169;28;20053;-80
2024/01/16 03:54:47;;;;;;;;;;;;;;;;;;4990730;28;20129;-80
2024/01/16 03:57:12;;;;;;;25.20;12.75;;;;;;;;;;4990913;28;19913;-80
2024/01/16 03:59:38;;;;;;;24.92;13.52;;;;;;;;;;4990221;28;20038;-80
2024/01/16 04:02:04;;;;;;;25.15;13.60;;;;;;;;;;4973673;28;20128;-79
2024/01/16 04:04:29;;;;;;;25.27;12.82;;;;;;;;;;4984818;28;20128;-80
2024/01/16 04:06:54;;;;;;;27.75;14.38;;;;;;;;;;4998129;28;20510;-80
2024/01/16 04:09:20;;;;;;;23.13;13.13;;;;;;;;;;4974501;28;20030;-80
2024/01/16 04:11:47;;;;;;;;;;;;;;;;;;4993396;28;20026;-80
2024/01/16 04:14:12;;;;;;;27.30;13.37;;;;;;;;;;4991181;28;20286;-80
2024/01/16 04:16:38;;;;;;;22.02;12.93;;;;;;;;;;4973104;28;20317;-80
2024/01/16 04:19:03;;;;;;;;;;;;;;;;;;4990507;28;20038;-80
2024/01/16 04:21:28;;;;;;;21.35;12.52;;;;;;;;;;4991017;28;19910;-80
2024/01/16 04:23:54;;;;;;;23.95;12.90;;;;;;;;;;4991796;28;20061;-80
2024/01/16 04:26:19;;;;;;;24.88;13.18;;;;;;;;;;4989961;28;20100;-80
2024/01/16 04:28:45;;;;;;;24.70;13.18;;;;;;;;;;4994147;28;20471;-79
2024/01/16 04:31:11;;;;;;;;;;;;;;;;;;4990484;28;20164;-80
2024/01/16 04:33:37;;;;;;;24.63;12.13;;;;;;;;;;4995394;28;19913;-80
2024/01/16 04:36:02;;;;;;;;;;;;;;;;;;4996347;28;20493;-79
2024/01/16 04:38:28;;;;;;;23.23;11.70;;;;;;;;;;4997774;28;19925;-80
2024/01/16 04:40:53;;;;;;;28.13;15.27;;;;;;;;;;4976177;28;20069;-81
2024/01/16 04:43:19;;;;;;;26.08;13.55;;;;;;;;;;4993584;28;20065;-80
2024/01/16 04:45:44;;;;;;;27.55;13.68;;;;;;;;;;5000675;28;20117;-80
2024/01/16 04:48:10;;;;;;;24.55;14.43;;;;;;;;;;5004264;28;20029;-81
2024/01/16 04:50:35;;;;;;;;;;;;;;;;;;4993219;28;20062;-81
2024/01/16 04:53:01;;;;;;;26.15;13.40;;;;;;;;;;4977629;28;19944;-81
2024/01/16 04:55:26;;;;;;;;;;;;;;;;;;4978127;28;20069;-83
2024/01/16 04:57:52;;;;;;;26.20;13.60;;;;;;;;;;4998723;28;19964;-83
2024/01/16 05:00:17;;;;;;;;;;;;;;;;;;4996444;28;20026;-81
2024/01/16 05:02:43;;;;;;;23.75;13.90;;;;;;;;;;4998127;28;19968;-80
2024/01/16 05:05:08;;;;;;;28.75;14.32;;;;;;;;;;4996334;28;20034;-86
2024/01/16 05:07:35;;;;;;;;;;;;;;;;;;4995052;28;20493;-82
2024/01/16 05:10:01;;;;;;;25.55;13.73;;;;;;;;;;4993932;28;19910;-81
2024/01/16 05:12:26;;;;;;;;;;;;;;;;;;4995842;28;20030;-83
2024/01/16 05:14:51;;;;;;;26.98;13.73;;;;;;;;;;4996810;28;19968;-81
2024/01/16 05:17:17;;;;;;;23.30;12.25;;;;;;;;;;4991679;28;20042;-81
2024/01/16 05:19:42;;;;;;;27.40;13.93;;;;;;;;;;4977014;28;20114;-82
2024/01/16 05:22:08;;;;;;;;;;;;;;;;;;4995991;28;20123;-80
2024/01/16 05:24:33;;;;;;;25.73;13.70;;;;;;;;;;4994761;28;19964;-80
2024/01/16 05:26:59;;;;;;;;;;;;;;;;;;4995024;28;20121;-80
2024/01/16 05:29:24;;;;;;;27.42;14.50;;;;;;;;;;4993292;28;19917;-80
2024/01/16 05:31:50;;;;;;;;;;;;;;;;;;4993016;28;20045;-81
2024/01/16 05:34:16;;;;;;;27.45;14.10;;;;;;;;;;4992086;28;19910;-81
2024/01/16 05:36:41;;;;;;;23.65;13.55;;;;;;;;;;4991045;28;20696;-81
2024/01/16 05:39:08;;;;;;;;;;;;;;;;;;4992855;28;20125;-80
2024/01/16 05:41:33;;;;;;;25.17;13.65;;;;;;;;;;4992122;28;19920;-80
2024/01/16 05:43:59;;;;;;;;;;;;;;;;;;4973938;28;20026;-81
2024/01/16 05:46:24;;;;;;;28.27;14.00;;;;;;;;;;4991622;28;19921;-81
2024/01/16 05:48:50;;;;;;;28.55;15.07;;;;;;;;;;4992402;28;20549;-81
2024/01/16 05:51:15;;;;;;;26.65;15.07;;;;;;;;;;4975990;28;20042;-82
2024/01/16 05:53:41;;;;;;;;;;;;;;;;;;4991082;28;20023;-81
2024/01/16 05:56:07;;;;;;;28.38;13.73;;;;;;;;;;4994013;28;19940;-81
2024/01/16 05:58:38;;;;;;;28.60;14.60;;;;;;;;;;4978578;28;20061;-80
2024/01/16 06:01:04;;;;;;;28.55;15.30;;;;;;;;;;5001643;28;20095;-81
2024/01/16 06:03:29;;;;;;;;;;;;;;;;;;4992018;28;20405;-81
2024/01/16 06:05:55;;;;;;;25.75;14.85;;;;;;;;;;5005916;28;19913;-81
2024/01/16 06:08:20;;;;;;;25.23;14.95;;;;;;;;;;4997040;28;20049;-81
2024/01/16 06:10:46;;;;;;;29.58;16.30;;;;;;;;;;4999183;28;20786;-81
2024/01/16 06:13:11;;;;;;;;;;;;;;;;;;4996528;28;20033;-81
2024/01/16 06:15:36;;;;;;;26.10;13.80;;;;;;;;;;4989891;28;19940;-82
2024/01/16 06:18:02;;;;;;;27.60;14.98;;;;;;;;;;4997139;28;20037;-81
2024/01/16 06:20:29;;;;;;;;;;;;;;;;;;5000767;28;20053;-81
2024/01/16 06:22:54;;;;;;;25.25;13.45;;;;;;;;;;4996872;28;19956;-81
2024/01/16 06:25:20;;;;;;;;;;;;;;;;;;4994425;28;20066;-80
2024/01/16 06:27:45;;;;;;;23.27;12.77;;;;;;;;;;4990639;28;20022;-81
2024/01/16 06:30:11;;;;;;;26.02;14.15;;;;;;;;;;4992742;28;20084;-81
2024/01/16 06:32:36;;;;;;;;;;;;;;;;;;4993724;28;20022;-81
2024/01/16 06:35:01;;;;;;;25.65;14.00;;;;;;;;;;4997107;28;19913;-80
2024/01/16 06:37:27;;;;;;;;;;;;;;;;;;4994746;28;20127;-81
2024/01/16 06:39:52;;;;;;;26.88;14.40;;;;;;;;;;4993253;28;19913;-82
2024/01/16 06:42:18;;;;;;;26.00;13.60;;;;;;;;;;4993588;28;20038;-81
2024/01/16 06:44:43;;;;;;;;;;;;;;;;;;4980322;28;20046;-81
2024/01/16 06:47:08;;;;;;;25.42;13.30;;;;;;;;;;4993963;28;20329;-81
2024/01/16 06:49:34;;;;;;;;;;;;;;;;;;4975364;28;20093;-81
2024/01/16 06:51:59;;;;;;;28.58;14.30;;;;;;;;;;4972785;28;19914;-81
2024/01/16 06:54:25;;;;;;;35.35;16.83;;;;;;;;;;4995763;28;20038;-81
2024/01/16 06:56:51;;;;;;;33.83;17.55;;;;;;;;;;4991818;28;20077;-81
2024/01/16 06:59:19;;;;;;;31.77;16.42;;;;;;;;;;4988676;28;20038;-81
2024/01/16 07:01:44;;;;;;;26.83;14.30;;;;;;;;;;4999056;28;20125;-81
2024/01/16 07:04:10;;;;;;;;;;;;;;;;;;4994242;28;20133;-82
2024/01/16 07:06:35;;;;;;;27.02;15.00;;;;;;;;;;4990033;28;20274;-80
2024/01/16 07:09:00;;;;;;;25.65;13.70;;;;;;;;;;4990344;28;20034;-82
2024/01/16 07:11:26;;;;;;;29.60;15.38;;;;;;;;;;4993699;28;20030;-82
2024/01/16 07:13:51;;;;;;;;;;;;;;;;;;4993681;28;20068;-81
2024/01/16 07:16:17;;;;;;;43.75;19.88;;;;;;;;;;4991535;28;19909;-82
2024/01/16 07:18:42;;;;;;;45.92;21.70;;;;;;;;;;4995685;28;20029;-81
2024/01/16 07:21:07;;;;;;;;;;;;;;;;;;4994884;28;20109;-81
2024/01/16 07:23:33;;;;;;;32.92;16.88;;;;;;;;;;4996391;28;19918;-81
2024/01/16 07:25:58;;;;;;;34.85;16.17;;;;;;;;;;4975042;28;20034;-81
2024/01/16 07:28:24;;;;;;;31.08;17.50;;;;;;;;;;4992635;28;20045;-82
2024/01/16 07:30:49;;;;;;;;;;;;;;;;;;4988833;28;20057;-81
2024/01/16 07:33:14;;;;;;;28.40;15.80;;;;;;;;;;4992056;28;20360;-82
2024/01/16 07:35:41;;;;;;;30.60;16.13;;;;;;;;;;4990548;28;20501;-81
2024/01/16 07:38:07;;;;;;;28.98;15.50;;;;;;;;;;4994478;28;20054;-82
2024/01/16 07:40:32;;;;;;;;;;;;;;;;;;4991795;28;20042;-80
2024/01/16 07:42:57;;;;;;;29.25;15.52;;;;;;;;;;4977051;28;20388;-81
2024/01/16 07:45:23;;;;;;;;;;;;;;;;;;4976551;28;20409;-81
2024/01/16 07:47:48;;;;;;;28.10;15.05;;;;;;;;;;4997383;28;19939;-81
2024/01/16 07:50:14;;;;;;;27.48;14.60;;;;;;;;;;4988790;28;20053;-82
2024/01/16 07:52:40;;;;;;;27.63;14.63;;;;;;;;;;4989833;28;20152;-81
2024/01/16 07:55:06;;;;;;;;;;;;;;;;;;4991158;28;20034;-82
2024/01/16 07:57:31;;;;;;;27.83;15.30;;;;;;;;;;5005548;28;19913;-81
2024/01/16 07:59:57;;;;;;;28.48;15.50;;;;;;;;;;4992159;28;20030;-82
2024/01/16 08:02:22;;;;;;;28.90;15.57;;;;;;;;;;4991121;28;20035;-82
2024/01/16 08:04:48;;;;;;;;;;;;;;;;;;4995989;28;20039;-81
2024/01/16 08:07:13;;;;;;;37.08;19.85;;;;;;;;;;4990104;28;19964;-81
2024/01/16 08:09:39;;;;;;;;;;;;;;;;;;4995535;28;20018;-81
2024/01/16 08:12:05;;;;;;;33.10;17.95;;;;;;;;;;4991810;28;20435;-81
2024/01/16 08:14:31;;;;;;;30.08;17.45;;;;;;;;;;4993072;28;20101;-81
2024/01/16 08:16:56;;;;;;;;;;;;;;;;;;4994153;28;20564;-81
2024/01/16 08:19:22;;;;;;;28.92;16.52;;;;;;;;;;4994596;28;19913;-81
2024/01/16 08:21:47;;;;;;;27.77;16.17;;;;;;;;;;4996258;28;20493;-81
2024/01/16 08:24:13;;;;;;;28.77;15.40;;;;;;;;;;4992914;28;20034;-82
2024/01/16 08:26:38;;;;;;;28.73;14.23;;;;;;;;;;4993448;28;20049;-82
2024/01/16 08:29:05;;;;;;;;;;;;;;;;;;4996263;28;20516;-83
2024/01/16 08:31:30;;;;;;;27.20;14.63;;;;;;;;;;4995568;28;20384;-81
2024/01/16 08:33:57;;;;;;;;;;;;;;;;;;4997032;28;20034;-83
2024/01/16 08:36:22;;;;;;;26.55;14.15;;;;;;;;;;4997128;28;20024;-82
2024/01/16 08:38:48;;;;;;;;;;;;;;;;;;4997415;28;20118;-82
2024/01/16 08:41:13;;;;;;;30.83;16.27;;;;;;;;;;4997005;28;20020;-82
2024/01/16 08:43:38;;;;;;;32.33;17.40;;;;;;;;;;4992020;28;20058;-82
2024/01/16 08:46:04;;;;;;;27.42;15.60;;;;;;;;;;4993201;28;20588;-82
2024/01/16 08:48:29;;;;;;;32.25;17.13;;;;;;;;;;4994745;28;20089;-82
2024/01/16 08:50:55;;;;;;;29.48;15.30;;;;;;;;;;4993670;28;20045;-81
2024/01/16 08:53:23;;;;;;;;;;;;;;;;;;4979354;28;20058;-82
2024/01/16 08:55:48;;;;;;;;;;;;;;;;;;4993447;28;19920;-82
2024/01/16 08:58:13;;;;;;;27.05;15.40;;;;;;;;;;4992683;28;20004;-82
2024/01/16 09:00:39;;;;;;;25.98;14.18;;;;;;;;;;4992883;28;20464;-81
2024/01/16 09:03:05;;;;;;;29.60;16.30;;;;;;;;;;4994396;28;20038;-81
2024/01/16 09:05:30;;;;;;;27.58;15.43;;;;;;;;;;4994316;28;20026;-81
2024/01/16 09:07:56;;;;;;;28.45;17.90;;;;;;;;;;4995411;28;20062;-82
2024/01/16 09:10:21;;;;;;;;;;;;;;;;;;4995800;28;20039;-82
2024/01/16 09:12:48;;;;;;;25.80;13.98;;;;;;;;;;5001263;28;19936;-81
2024/01/16 09:15:14;;;;;;;26.48;15.43;;;;;;;;;;4962289;28;20038;-82
2024/01/16 09:17:39;;;;;;;26.10;15.00;;;;;;;;;;4996001;28;20029;-83
2024/01/16 09:20:06;;;;;;;27.30;15.10;;;;;;;;;;4978585;28;20042;-83
2024/01/16 09:22:32;;;;;;;25.60;15.48;;;;;;;;;;4997127;28;20066;-81
2024/01/16 09:24:57;;;;;;;29.23;14.90;;;;;;;;;;4999272;28;20062;-82
2024/01/16 09:27:23;;;;;;;26.95;15.38;;;;;;;;;;4997950;28;20560;-83
2024/01/16 09:29:49;;;;;;;;;;;;;;;;;;4998574;28;20517;-81
2024/01/16 09:32:14;;;;;;;26.58;15.55;;;;;;;;;;4989449;28;19914;-83
2024/01/16 09:34:40;;;;;;;25.33;14.18;;;;;;;;;;4999222;28;20037;-81
2024/01/16 09:37:05;;;;;;;30.83;15.63;;;;;;;;;;4991353;28;20109;-81
2024/01/16 09:39:31;;;;;;;24.10;15.02;;;;;;;;;;4998961;28;20390;-83
2024/01/16 09:41:57;;;;;;;;;;;;;;;;;;4997173;28;20085;-82
2024/01/16 09:44:22;;;;;;;25.42;14.13;;;;;;;;;;5000816;28;20360;-82
2024/01/16 09:46:49;;;;;;;26.27;14.15;;;;;;;;;;4995514;28;20061;-82
2024/01/16 09:49:15;;;;;;;26.48;14.75;;;;;;;;;;4974983;28;20039;-82
2024/01/16 09:51:40;;;;;;;26.20;15.15;;;;;;;;;;4989582;28;20507;-82
2024/01/16 09:54:08;;;;;;;27.27;14.55;;;;;;;;;;4989549;28;20529;-82
2024/01/16 09:56:34;;;;;;;24.98;14.40;;;;;;;;;;4975071;28;20022;-82
2024/01/16 09:59:02;;;;;;;24.90;14.05;;;;;;;;;;4991046;28;20517;-81
2024/01/16 10:01:28;;;;;;;24.52;14.55;;;;;;;;;;4977106;28;20033;-81
2024/01/16 10:04:12;;;;;;;24.50;14.63;;;;;;;;;;4995592;28;20049;-81
2024/01/16 10:06:37;;;;;;;25.10;13.93;;;;;;;;;;4994800;28;20421;-81
2024/01/16 10:09:03;;;;;;;25.67;15.25;;;;;;;;;;4993100;28;20030;-81
2024/01/16 10:11:29;;;;;;;29.55;15.15;;;;;;;;;;4993463;28;20036;-81
2024/01/16 10:13:54;;;;;;;28.65;16.27;;;;;;;;;;4978637;28;20042;-81
2024/01/16 10:16:21;;;;;;;29.92;16.85;;;;;;;;;;4995903;28;20378;-82
2024/01/16 10:18:46;;;;;;;32.35;17.30;;;;;;;;;;4997102;28;20033;-81
2024/01/16 10:21:29;;;;;;;26.55;15.35;;;;;;;;;;4995755;28;20044;-82
2024/01/16 10:23:54;;;;;;;26.15;15.32;;;;;;;;;;4981693;28;20048;-82
2024/01/16 10:26:19;;;;;;;27.95;16.60;;;;;;;;;;4992877;28;20025;-82
2024/01/16 10:28:45;;;;;;;;;;;;;;;;;;4983392;28;20049;-82
2024/01/16 10:31:11;;;;;;;25.73;15.00;;;;;;;;;;4996267;28;19917;-82
2024/01/16 10:33:40;;;;;;;;;;;;;;;;;;4999488;28;20425;-82
2024/01/16 10:36:16;;;;;;;26.30;15.18;;;;;;;;;;4995099;28;19928;-82
2024/01/16 10:38:43;;;;;;;24.30;14.10;;;;;;;;;;4999477;28;20140;-82
2024/01/16 10:41:12;;;;;;;25.67;14.32;;;;;;;;;;4978765;28;20040;-82
2024/01/16 10:43:37;;;;;;;28.67;16.13;;;;;;;;;;4991066;28;20414;-83
2024/01/16 10:46:12;;;;;;;35.13;20.00;;;;;;;;;;4989375;28;20089;-82
2024/01/16 10:48:38;;;;;;;35.20;19.85;;;;;;;;;;4997711;28;20053;-82
2024/01/16 10:51:05;;;;;;;30.23;17.13;;;;;;;;;;4991589;28;20034;-82
2024/01/16 10:53:32;;;;;;;29.60;16.48;;;;;;;;;;4986891;28;20077;-82
2024/01/16 10:55:58;;;;;;;28.63;15.50;;;;;;;;;;4994548;28;20026;-80
2024/01/16 10:58:23;;;;;;;28.77;17.52;;;;;;;;;;4977527;28;20046;-82
2024/01/16 11:00:50;;;;;;;26.90;16.05;;;;;;;;;;4992199;28;20042;-82
2024/01/16 11:03:18;;;;;;;29.67;17.38;;;;;;;;;;4994597;28;20113;-83
2024/01/16 11:05:43;;;;;;;30.98;17.40;;;;;;;;;;4992762;28;20386;-82
2024/01/16 11:08:09;;;;;;;27.35;16.15;;;;;;;;;;4972049;28;20038;-82
2024/01/16 11:10:35;;;;;;;26.30;14.63;;;;;;;;;;4989263;28;20041;-82
2024/01/16 11:13:01;;;;;;;26.05;15.20;;;;;;;;;;4991578;28;20430;-83
2024/01/16 11:15:27;;;;;;;30.73;17.00;;;;;;;;;;4989324;28;20070;-83
2024/01/16 11:17:53;;;;;;;29.42;16.75;;;;;;;;;;4987894;28;20547;-83
2024/01/16 11:20:18;;;;;;;28.38;16.42;;;;;;;;;;4979519;28;20124;-82
2024/01/16 11:22:44;;;;;;;28.15;16.80;;;;;;;;;;4999610;28;20407;-83
2024/01/16 11:25:13;;;;;;;27.80;16.05;;;;;;;;;;4978064;28;20506;-82
2024/01/16 11:27:39;;;;;;;30.35;16.02;;;;;;;;;;4994867;28;20038;-82
2024/01/16 11:30:14;;;;;;;28.17;16.17;;;;;;;;;;4995083;28;20037;-83
2024/01/16 11:32:44;;;;;;;26.98;15.27;;;;;;;;;;4999145;28;20432;-82
2024/01/16 11:35:11;;;;;;;26.80;15.68;;;;;;;;;;4990138;28;20046;-82
2024/01/16 11:37:37;;;;;;;28.80;15.27;;;;;;;;;;4982027;28;20088;-83
2024/01/16 11:40:21;;;;;;;24.05;14.50;;;;;;;;;;4998446;28;20121;-82
2024/01/16 11:42:50;;;;;;;29.48;17.48;;;;;;;;;;5001068;28;20034;-82
2024/01/16 11:45:29;;;;;;;28.45;15.82;;;;;;;;;;4979550;28;20029;-82
2024/01/16 11:48:10;;;;;;;32.50;17.63;;;;;;;;;;4985859;28;20094;-81
2024/01/16 11:50:35;;;;;;;28.75;16.33;;;;;;;;;;4989298;28;20038;-81
2024/01/16 11:53:01;;;;;;;27.85;15.77;;;;;;;;;;4971775;28;20527;-82
2024/01/16 11:55:33;;;;;;;26.27;15.65;;;;;;;;;;4989700;28;20145;-82
2024/01/16 11:58:03;;;;;;;29.38;17.00;;;;;;;;;;4989458;28;20062;-82
2024/01/16 12:00:29;;;;;;;27.20;16.23;;;;;;;;;;4987579;28;20096;-81
2024/01/16 12:02:58;;;;;;;28.23;16.05;;;;;;;;;;4988506;28;20066;-82
2024/01/16 12:05:24;;;;;;;27.50;15.55;;;;;;;;;;4973049;28;20459;-82
2024/01/16 12:07:49;;;;;;;;;;;;;;;;;;4973376;28;20052;-81
2024/01/16 12:10:15;;;;;;;28.63;16.05;;;;;;;;;;4990192;28;19909;-80
2024/01/16 12:12:41;;;;;;;30.67;16.67;;;;;;;;;;5000354;28;20034;-82
2024/01/16 12:15:06;;;;;;;28.70;17.63;;;;;;;;;;4996982;28;20034;-82
2024/01/16 12:17:32;;;;;;;27.55;15.35;;;;;;;;;;4993562;28;20066;-82
2024/01/16 12:19:57;;;;;;;28.58;16.35;;;;;;;;;;4991931;28;20844;-82
2024/01/16 12:22:23;;;;;;;27.80;15.93;;;;;;;;;;4975742;28;20062;-81
2024/01/16 12:24:48;;;;;;;26.80;16.17;;;;;;;;;;4992196;28;20038;-82
2024/01/16 12:27:15;;;;;;;26.83;15.60;;;;;;;;;;4976732;28;20541;-81
2024/01/16 12:29:41;;;;;;;31.13;16.63;;;;;;;;;;4992585;28;20039;-81
2024/01/16 12:32:10;;;;;;;31.50;18.60;;;;;;;;;;4994405;28;20027;-81
2024/01/16 12:34:35;;;;;;;23.92;14.68;;;;;;;;;;4996750;28;20553;-81
2024/01/16 12:37:05;;;;;;;25.90;15.25;;;;;;;;;;4991095;28;20149;-80
2024/01/16 12:39:31;;;;;;;26.70;15.73;;;;;;;;;;4994220;28;20741;-79
2024/01/16 12:41:56;;;;;;;26.42;15.73;;;;;;;;;;4970004;28;20035;-80
2024/01/16 12:44:26;;;;;;;28.88;15.02;;;;;;;;;;4990709;28;20031;-78
2024/01/16 12:46:55;;;;;;;25.35;14.77;;;;;;;;;;4993335;28;20576;-80
2024/01/16 12:49:22;;;;;;;25.95;15.57;;;;;;;;;;4987861;28;20057;-81
2024/01/16 12:51:47;;;;;;;25.67;16.05;;;;;;;;;;4971959;28;20043;-80
2024/01/16 12:54:13;;;;;;;25.23;15.73;;;;;;;;;;4987428;28;20034;-80
2024/01/16 12:56:39;;;;;;;28.77;15.65;;;;;;;;;;4972430;28;20037;-80
2024/01/16 12:59:13;;;;;;;31.05;15.75;;;;;;;;;;4989305;28;20070;-80
2024/01/16 13:01:46;;;;;;;30.00;16.10;;;;;;;;;;4988285;28;20042;-80
2024/01/16 13:04:16;;;;;;;28.63;17.15;;;;;;;;;;4971962;28;20046;-79
2024/01/16 13:06:43;;;;;;;24.88;13.80;;;;;;;;;;4988157;28;20030;-80
2024/01/16 13:09:19;;;;;;;26.88;15.75;;;;;;;;;;4988488;28;20045;-80
2024/01/16 13:11:49;;;;;;;28.52;16.95;;;;;;;;;;4973240;28;20490;-80
2024/01/16 13:14:14;;;;;;;30.48;17.33;;;;;;;;;;4991054;28;20038;-79
2024/01/16 13:16:40;;;;;;;27.20;16.38;;;;;;;;;;4957289;28;20153;-81
2024/01/16 13:19:09;;;;;;;27.50;15.93;;;;;;;;;;4975157;28;20034;-78
2024/01/16 13:21:35;;;;;;;26.00;14.98;;;;;;;;;;4974851;28;20042;-80
2024/01/16 13:24:02;;;;;;;26.45;15.93;;;;;;;;;;4994560;28;20414;-80
2024/01/16 13:26:28;;;;;;;31.23;18.85;;;;;;;;;;4992581;28;20556;-81
2024/01/16 13:28:53;;;;;;;27.50;15.98;;;;;;;;;;4978442;28;20030;-80
2024/01/16 13:31:19;;;;;;;25.75;14.25;;;;;;;;;;4994169;28;20031;-79
2024/01/16 13:33:44;;;;;;;28.88;16.60;;;;;;;;;;4996107;28;20026;-81
2024/01/16 13:36:09;;;;;;;29.85;17.27;;;;;;;;;;4992446;28;20149;-81
2024/01/16 13:38:35;;;;;;;28.40;15.75;;;;;;;;;;4991958;28;20050;-81
2024/01/16 13:41:02;;;;;;;;;;;;;;;;;;4993695;28;20037;-79
2024/01/16 13:43:27;;;;;;;27.17;14.63;;;;;;;;;;4997912;28;19909;-80
2024/01/16 13:45:53;;;;;;;27.98;16.58;;;;;;;;;;4994880;28;20502;-80
2024/01/16 13:48:19;;;;;;;;;;;;;;;;;;4995782;28;20026;-79
2024/01/16 13:50:44;;;;;;;30.42;15.20;;;;;;;;;;4991015;28;19914;-81
2024/01/16 13:53:12;;;;;;;29.40;15.13;;;;;;;;;;4992255;28;20022;-80
2024/01/16 13:55:38;;;;;;;27.05;15.43;;;;;;;;;;4997030;28;20038;-81
2024/01/16 13:58:04;;;;;;;;;;;;;;;;;;4998594;28;20032;-80
2024/01/16 14:00:30;;;;;;;26.02;15.25;;;;;;;;;;4995669;28;20009;-81
2024/01/16 14:02:56;;;;;;;25.10;14.38;;;;;;;;;;4975669;28;20026;-80
2024/01/16 14:05:21;;;;;;;;;;;;;;;;;;4994918;28;20038;-82
2024/01/16 14:07:48;;;;;;;29.73;15.15;;;;;;;;;;5002506;28;20376;-80
2024/01/16 14:10:14;;;;;;;29.25;14.88;;;;;;;;;;4999398;28;20717;-80
2024/01/16 14:12:42;;;;;;;25.88;14.77;;;;;;;;;;5002670;28;20018;-81
2024/01/16 14:15:15;;;;;;;25.15;14.68;;;;;;;;;;4984256;28;20036;-79
2024/01/16 14:17:42;;;;;;;24.98;15.32;;;;;;;;;;4987458;28;20038;-79
2024/01/16 14:20:10;;;;;;;;;;;;;;;;;;4999365;28;20057;-80
2024/01/16 14:22:37;;;;;;;26.67;14.93;;;;;;;;;;5004350;28;19960;-81
2024/01/16 14:25:04;;;;;;;26.55;14.73;;;;;;;;;;5006049;28;20568;-81
2024/01/16 14:27:30;;;;;;;28.70;16.20;;;;;;;;;;4990808;28;20088;-81
2024/01/16 14:29:55;;;;;;;27.25;15.13;;;;;;;;;;4991759;28;20023;-81
2024/01/16 14:32:21;;;;;;;25.77;15.35;;;;;;;;;;4992140;28;20041;-80
2024/01/16 14:34:46;;;;;;;28.38;16.75;;;;;;;;;;4996328;28;20034;-81